createdAt,value
2018-09-26T00:02:31.058Z,81.65
2018-09-26T00:04:59.308Z,81.85
2018-09-26T00:07:27.530Z,81.10
2018-09-26T00:09:55.737Z,81.12
2018-09-26T00:12:23.982Z,80.21
2018-09-26T00:14:52.199Z,80.00
2018-09-26T00:17:20.431Z,79.76
2018-09-26T00:19:48.691Z,79.46
2018-09-26T00:22:16.931Z,79.92
2018-09-26T00:24:45.142Z,79.58
2018-09-26T00:27:13.436Z,80.79
2018-09-26T00:29:41.669Z,80.54
2018-09-26T00:32:09.931Z,80.75
2018-09-26T00:34:38.186Z,81.20
2018-09-26T00:37:06.404Z,81.15
2018-09-26T00:39:34.676Z,81.08
2018-09-26T00:42:02.878Z,81.43
2018-09-26T00:44:31.126Z,81.66
2018-09-26T00:46:59.383Z,81.27
2018-09-26T00:49:27.627Z,80.46
2018-09-26T00:51:55.822Z,80.30
2018-09-26T00:54:24.077Z,79.97
2018-09-26T00:56:52.334Z,80.55
2018-09-26T00:59:20.550Z,79.76
2018-09-26T01:01:48.758Z,79.90
2018-09-26T01:04:17.015Z,78.79
2018-09-26T01:06:45.240Z,78.67
2018-09-26T01:09:13.450Z,79.37
2018-09-26T01:11:41.672Z,80.25
2018-09-26T01:14:09.904Z,81.68
2018-09-26T01:16:38.118Z,80.62
2018-09-26T01:19:06.367Z,80.22
2018-09-26T01:21:34.750Z,80.76
2018-09-26T01:24:02.959Z,80.97
2018-09-26T01:26:31.228Z,81.63
2018-09-26T01:28:59.422Z,81.00
2018-09-26T01:31:27.683Z,80.40
2018-09-26T01:33:55.909Z,80.75
2018-09-26T01:36:24.153Z,80.80
2018-09-26T01:38:52.385Z,80.40
2018-09-26T01:41:20.687Z,81.57
2018-09-26T01:43:48.851Z,80.93
2018-09-26T01:46:17.102Z,80.90
2018-09-26T01:48:45.327Z,81.59
2018-09-26T01:51:13.539Z,81.36
2018-09-26T01:53:41.767Z,80.19
2018-09-26T01:56:09.980Z,80.50
2018-09-26T01:58:38.189Z,80.49
2018-09-26T02:01:06.615Z,81.28
2018-09-26T02:03:34.864Z,80.38
2018-09-26T02:06:03.182Z,81.02
2018-09-26T02:08:31.420Z,80.72
2018-09-26T02:10:59.653Z,81.87
2018-09-26T02:13:27.888Z,80.96
2018-09-26T02:15:56.112Z,81.05
2018-09-26T02:18:24.365Z,80.74
2018-09-26T02:20:52.611Z,80.78
2018-09-26T02:23:20.838Z,81.85
2018-09-26T02:25:49.078Z,82.13
2018-09-26T02:28:17.322Z,82.26
2018-09-26T02:30:45.540Z,82.32
2018-09-26T02:33:13.768Z,81.74
2018-09-26T02:35:42.019Z,82.40
2018-09-26T02:38:10.270Z,83.42
2018-09-26T02:40:38.498Z,82.93
2018-09-26T02:43:06.845Z,83.02
2018-09-26T02:45:35.088Z,81.31
2018-09-26T02:48:03.318Z,82.79
2018-09-26T02:50:31.549Z,83.92
2018-09-26T02:52:59.805Z,84.00
2018-09-26T02:55:28.130Z,82.89
2018-09-26T02:57:56.358Z,82.88
2018-09-26T03:00:24.617Z,82.71
2018-09-26T03:02:52.846Z,83.74
2018-09-26T03:05:21.115Z,83.61
2018-09-26T03:07:49.316Z,82.16
2018-09-26T03:10:17.518Z,82.60
2018-09-26T03:12:45.735Z,83.37
2018-09-26T03:15:13.946Z,82.45
2018-09-26T03:17:42.252Z,80.98
2018-09-26T03:20:10.420Z,80.73
2018-09-26T03:22:38.651Z,81.40
2018-09-26T03:25:06.968Z,80.48
2018-09-26T03:27:35.188Z,80.77
2018-09-26T03:30:03.402Z,81.58
2018-09-26T03:32:31.644Z,82.17
2018-09-26T03:34:59.883Z,82.88
2018-09-26T03:37:28.134Z,82.11
2018-09-26T03:39:56.383Z,81.80
2018-09-26T03:42:24.639Z,80.20
2018-09-26T03:44:52.870Z,81.16
2018-09-26T03:47:21.097Z,81.46
2018-09-26T03:49:49.322Z,82.07
2018-09-26T03:52:17.566Z,81.29
2018-09-26T03:54:45.774Z,80.99
2018-09-26T03:57:14.004Z,81.69
2018-09-26T03:59:42.226Z,81.97
2018-09-26T04:02:10.471Z,81.96
2018-09-26T04:04:38.698Z,81.80
2018-09-26T04:07:06.966Z,81.28
2018-09-26T04:09:35.215Z,81.55
2018-09-26T04:12:03.526Z,82.37
2018-09-26T04:14:31.773Z,81.20
2018-09-26T04:17:00.008Z,81.51
2018-09-26T04:19:28.213Z,82.73
2018-09-26T04:21:56.451Z,83.78
2018-09-26T04:24:24.709Z,81.42
2018-09-26T04:26:53.342Z,81.50
2018-09-26T04:29:21.395Z,81.47
2018-09-26T04:31:49.681Z,82.54
2018-09-26T04:34:17.897Z,82.76
2018-09-26T04:36:46.114Z,82.93
2018-09-26T04:39:14.351Z,82.47
2018-09-26T04:41:42.579Z,81.85
2018-09-26T04:44:10.818Z,81.99
2018-09-26T04:46:39.074Z,82.54
2018-09-26T04:49:07.397Z,82.33
2018-09-26T04:51:36.287Z,83.24
2018-09-26T04:54:04.864Z,83.55
2018-09-26T04:56:33.177Z,82.07
2018-09-26T04:59:01.490Z,82.92
2018-09-26T05:01:29.701Z,84.20
2018-09-26T05:03:58.435Z,83.84
2018-09-26T05:06:26.679Z,83.03
2018-09-26T05:08:54.925Z,82.70
2018-09-26T05:11:23.110Z,84.27
2018-09-26T05:13:51.357Z,85.74
2018-09-26T05:16:19.569Z,84.39
2018-09-26T05:18:47.816Z,84.18
2018-09-26T05:21:16.057Z,84.25
2018-09-26T05:23:44.314Z,84.73
2018-09-26T05:26:12.535Z,83.44
2018-09-26T05:28:40.728Z,83.71
2018-09-26T05:31:09.031Z,83.22
2018-09-26T05:33:37.249Z,84.11
2018-09-26T05:36:05.483Z,83.40
2018-09-26T05:38:33.801Z,83.39
2018-09-26T05:41:03.142Z,82.64
2018-09-26T05:43:31.341Z,82.07
2018-09-26T05:45:59.585Z,83.04
2018-09-26T05:48:27.799Z,83.26
2018-09-26T05:50:56.052Z,83.44
2018-09-26T05:53:24.308Z,84.22
2018-09-26T05:55:52.566Z,84.01
2018-09-26T05:58:20.815Z,84.00
2018-09-26T06:00:49.049Z,84.17
2018-09-26T06:03:17.341Z,83.70
2018-09-26T06:05:45.783Z,84.37
2018-09-26T06:08:14.050Z,84.21
2018-09-26T06:10:42.292Z,84.40
2018-09-26T06:13:10.614Z,84.97
2018-09-26T06:15:38.838Z,84.91
2018-09-26T06:18:07.141Z,84.84
2018-09-26T06:20:35.392Z,85.40
2018-09-26T06:23:03.601Z,85.46
2018-09-26T06:25:31.881Z,85.07
2018-09-26T06:28:00.120Z,84.00
2018-09-26T06:30:28.353Z,83.69
2018-09-26T06:32:56.567Z,83.83
2018-09-26T06:35:24.774Z,82.81
2018-09-26T06:37:52.999Z,83.49
2018-09-26T06:40:21.397Z,83.61
2018-09-26T06:42:49.626Z,82.96
2018-09-26T06:45:17.846Z,83.49
2018-09-26T06:47:46.162Z,82.74
2018-09-26T06:50:14.473Z,81.95
2018-09-26T06:52:42.695Z,81.11
2018-09-26T06:55:10.930Z,81.11
2018-09-26T06:57:39.169Z,80.63
2018-09-26T07:00:08.139Z,79.50
2018-09-26T07:02:36.315Z,79.51
2018-09-26T07:05:04.606Z,79.73
2018-09-26T07:07:32.838Z,79.33
2018-09-26T07:10:01.085Z,77.77
2018-09-26T07:12:29.305Z,77.43
2018-09-26T07:14:57.539Z,75.66
2018-09-26T07:17:25.779Z,75.69
2018-09-26T07:19:54.015Z,76.37
2018-09-26T07:22:22.282Z,76.13
2018-09-26T07:24:50.505Z,74.98
2018-09-26T07:27:18.774Z,75.57
2018-09-26T07:29:47.022Z,75.51
2018-09-26T07:32:15.261Z,74.84
2018-09-26T07:34:43.471Z,73.14
2018-09-26T07:37:11.703Z,71.88
2018-09-26T07:39:39.985Z,72.02
2018-09-26T07:42:08.214Z,72.04
2018-09-26T07:44:36.454Z,72.09
2018-09-26T07:47:04.723Z,73.07
2018-09-26T07:49:32.949Z,72.29
2018-09-26T07:52:01.190Z,73.28
2018-09-26T07:54:30.470Z,73.36
2018-09-26T07:56:58.726Z,72.37
2018-09-26T07:59:26.958Z,71.70
2018-09-26T08:01:55.174Z,70.36
2018-09-26T08:04:23.427Z,68.53
2018-09-26T08:06:51.669Z,67.14
2018-09-26T08:09:19.894Z,66.95
2018-09-26T08:11:48.166Z,65.97
2018-09-26T08:14:16.359Z,65.99
2018-09-26T08:16:44.585Z,65.40
2018-09-26T08:19:12.817Z,65.10
2018-09-26T08:21:41.058Z,62.90
2018-09-26T08:24:09.407Z,63.12
2018-09-26T08:26:37.537Z,61.77
2018-09-26T08:29:05.796Z,60.66
2018-09-26T08:31:34.018Z,61.02
2018-09-26T08:34:02.245Z,60.80
2018-09-26T08:36:30.481Z,60.12
2018-09-26T08:38:58.718Z,59.53
2018-09-26T08:41:26.971Z,59.77
2018-09-26T08:43:55.261Z,59.91
2018-09-26T08:46:23.429Z,60.26
2018-09-26T08:48:51.645Z,59.45
2018-09-26T08:51:19.889Z,58.51
2018-09-26T08:53:48.157Z,56.76
2018-09-26T08:56:16.353Z,55.79
2018-09-26T08:58:44.608Z,56.39
2018-09-26T09:01:18.181Z,55.21
2018-09-26T09:03:46.409Z,54.62
2018-09-26T09:06:14.682Z,54.17
2018-09-26T09:08:42.849Z,51.34
2018-09-26T09:11:11.109Z,51.77
2018-09-26T09:13:39.356Z,52.76
2018-09-26T09:16:08.063Z,52.01
2018-09-26T09:18:36.308Z,50.91
2018-09-26T09:21:04.630Z,49.04
2018-09-26T09:23:32.838Z,50.13
2018-09-26T09:26:01.148Z,51.17
2018-09-26T09:28:29.370Z,49.86
2018-09-26T09:30:57.602Z,49.20
2018-09-26T09:33:25.843Z,49.63
2018-09-26T09:35:54.102Z,49.23
2018-09-26T09:38:22.371Z,48.90
2018-09-26T09:40:50.565Z,48.39
2018-09-26T09:43:18.778Z,49.38
2018-09-26T09:45:47.045Z,47.42
2018-09-26T09:48:15.282Z,47.82
2018-09-26T09:50:43.632Z,47.39
2018-09-26T09:53:11.854Z,47.53
2018-09-26T09:55:40.346Z,46.77
2018-09-26T09:58:08.567Z,45.57
2018-09-26T10:00:42.174Z,46.64
2018-09-26T10:03:10.488Z,46.19
2018-09-26T10:05:38.682Z,45.51
2018-09-26T10:08:06.995Z,46.84
2018-09-26T10:10:35.181Z,46.61
2018-09-26T10:13:03.422Z,45.76
2018-09-26T10:15:31.672Z,46.44
2018-09-26T10:17:59.906Z,46.41
2018-09-26T10:20:28.170Z,45.87
2018-09-26T10:22:56.395Z,45.23
2018-09-26T10:25:24.814Z,46.21
2018-09-26T10:27:53.071Z,44.27
2018-09-26T10:30:21.310Z,44.95
2018-09-26T10:32:49.546Z,45.51
2018-09-26T10:35:17.778Z,44.60
2018-09-26T10:37:46.030Z,45.45
2018-09-26T10:40:14.438Z,44.12
2018-09-26T10:42:42.691Z,42.88
2018-09-26T10:45:11.136Z,44.79
2018-09-26T10:47:39.358Z,45.01
2018-09-26T10:50:08.435Z,44.06
2018-09-26T10:52:36.682Z,43.94
2018-09-26T10:55:05.074Z,44.16
2018-09-26T10:57:33.344Z,43.71
2018-09-26T11:00:01.607Z,42.91
2018-09-26T11:02:29.877Z,44.75
2018-09-26T11:04:58.099Z,44.35
2018-09-26T11:07:26.331Z,44.54
2018-09-26T11:09:54.701Z,43.69
2018-09-26T11:12:22.951Z,42.35
2018-09-26T11:14:51.181Z,43.15
2018-09-26T11:17:19.384Z,42.76
2018-09-26T11:19:47.613Z,41.10
2018-09-26T11:22:15.886Z,39.61
2018-09-26T11:24:44.108Z,39.96
2018-09-26T11:27:12.342Z,40.76
2018-09-26T11:29:40.585Z,40.93
2018-09-26T11:32:08.846Z,40.11
2018-09-26T11:34:37.079Z,39.75
2018-09-26T11:37:05.323Z,40.46
2018-09-26T11:39:33.549Z,41.28
2018-09-26T11:42:01.796Z,41.00
2018-09-26T11:44:30.042Z,39.96
2018-09-26T11:46:58.262Z,39.30
2018-09-26T11:49:26.498Z,40.30
2018-09-26T11:51:54.741Z,40.11
2018-09-26T11:54:22.983Z,39.24
2018-09-26T11:56:51.210Z,37.88
2018-09-26T11:59:19.466Z,39.64
2018-09-26T12:01:47.670Z,38.19
2018-09-26T12:04:16.061Z,37.53
2018-09-26T12:06:44.285Z,38.02
2018-09-26T12:09:12.512Z,37.23
2018-09-26T12:11:40.750Z,36.82
2018-09-26T12:14:09.048Z,36.61
2018-09-26T12:16:37.273Z,37.54
2018-09-26T12:19:05.551Z,36.78
2018-09-26T12:21:33.820Z,37.62
2018-09-26T12:24:02.014Z,36.18
2018-09-26T12:26:30.251Z,36.01
2018-09-26T12:28:58.494Z,34.93
2018-09-26T12:31:26.741Z,35.24
2018-09-26T12:33:54.992Z,33.20
2018-09-26T12:36:23.305Z,30.07
2018-09-26T12:38:51.477Z,30.77
2018-09-26T12:41:19.755Z,31.10
2018-09-26T12:43:47.969Z,32.47
2018-09-26T12:46:16.277Z,34.07
2018-09-26T12:48:44.465Z,34.64
2018-09-26T12:51:12.731Z,30.59
2018-09-26T12:53:41.007Z,29.36
2018-09-26T12:56:09.255Z,30.08
2018-09-26T12:58:37.531Z,29.00
2018-09-26T13:01:06.063Z,30.10
2018-09-26T13:03:34.298Z,30.45
2018-09-26T13:06:02.562Z,28.21
2018-09-26T13:08:30.777Z,27.07
2018-09-26T13:10:59.058Z,29.16
2018-09-26T13:13:27.310Z,28.58
2018-09-26T13:15:55.596Z,28.82
2018-09-26T13:18:23.923Z,29.59
2018-09-26T13:20:52.162Z,27.91
2018-09-26T13:23:20.506Z,26.78
2018-09-26T13:25:48.767Z,26.82
2018-09-26T13:28:17.106Z,26.86
2018-09-26T13:30:45.331Z,29.29
2018-09-26T13:33:13.607Z,30.62
2018-09-26T13:35:41.882Z,30.09
2018-09-26T13:38:10.231Z,30.54
2018-09-26T13:40:38.402Z,30.36
2018-09-26T13:43:06.798Z,31.55
2018-09-26T13:45:35.076Z,30.17
2018-09-26T13:48:03.299Z,30.18
2018-09-26T13:50:31.628Z,30.96
2018-09-26T13:52:59.849Z,30.93
2018-09-26T13:55:28.094Z,31.43
2018-09-26T13:57:56.329Z,31.61
2018-09-26T14:00:24.585Z,31.78
2018-09-26T14:02:52.791Z,33.42
2018-09-26T14:05:20.985Z,31.90
2018-09-26T14:07:49.219Z,32.25
2018-09-26T14:10:17.462Z,33.08
2018-09-26T14:12:45.982Z,32.65
2018-09-26T14:15:14.206Z,32.81
2018-09-26T14:17:42.450Z,32.24
2018-09-26T14:20:10.720Z,32.46
2018-09-26T14:22:39.021Z,32.74
2018-09-26T14:25:07.237Z,32.97
2018-09-26T14:27:35.479Z,32.51
2018-09-26T14:30:03.797Z,31.71
2018-09-26T14:32:32.006Z,32.02
2018-09-26T14:35:00.209Z,31.56
2018-09-26T14:37:28.498Z,32.06
2018-09-26T14:39:56.693Z,31.42
2018-09-26T14:42:24.941Z,31.13
2018-09-26T14:44:53.266Z,32.78
2018-09-26T14:47:21.583Z,30.38
2018-09-26T14:49:49.812Z,30.64
2018-09-26T14:52:18.114Z,30.43
2018-09-26T14:54:46.362Z,31.18
2018-09-26T14:57:15.879Z,30.46
2018-09-26T14:59:44.101Z,31.60
2018-09-26T15:02:12.588Z,31.30
2018-09-26T15:04:40.990Z,31.69
2018-09-26T15:07:09.199Z,30.43
2018-09-26T15:09:37.512Z,30.88
2018-09-26T15:12:05.826Z,30.31
2018-09-26T15:14:34.084Z,29.95
2018-09-26T15:17:02.438Z,31.56
2018-09-26T15:19:30.777Z,30.69
2018-09-26T15:21:59.017Z,30.99
2018-09-26T15:24:27.389Z,30.97
2018-09-26T15:26:55.635Z,30.73
2018-09-26T15:29:23.953Z,31.04
2018-09-26T15:31:53.250Z,32.35
2018-09-26T15:34:21.566Z,32.30
2018-09-26T15:36:49.814Z,31.18
2018-09-26T15:39:18.023Z,32.23
2018-09-26T15:41:46.286Z,31.73
2018-09-26T15:44:14.603Z,31.84
2018-09-26T15:46:42.799Z,32.52
2018-09-26T15:49:11.034Z,33.16
2018-09-26T15:51:39.291Z,31.67
2018-09-26T15:54:07.953Z,34.20
2018-09-26T15:56:36.158Z,33.64
2018-09-26T15:59:04.526Z,33.92
2018-09-26T16:01:32.770Z,33.48
2018-09-26T16:04:01.009Z,35.04
2018-09-26T16:06:29.263Z,34.76
2018-09-26T16:08:57.463Z,35.07
2018-09-26T16:11:25.714Z,35.09
2018-09-26T16:13:53.930Z,35.52
2018-09-26T16:16:22.173Z,35.96
2018-09-26T16:18:50.451Z,36.06
2018-09-26T16:21:18.750Z,36.60
2018-09-26T16:23:46.954Z,35.90
2018-09-26T16:26:15.322Z,37.83
2018-09-26T16:28:43.486Z,37.34
2018-09-26T16:31:11.735Z,37.52
2018-09-26T16:33:40.023Z,38.00
2018-09-26T16:36:08.314Z,38.89
2018-09-26T16:38:37.607Z,37.82
2018-09-26T16:41:06.369Z,38.88
2018-09-26T16:43:34.682Z,39.26
2018-09-26T16:46:03.028Z,39.81
2018-09-26T16:48:31.365Z,40.06
2018-09-26T16:50:59.819Z,41.72
2018-09-26T16:53:28.080Z,41.51
2018-09-26T16:55:56.319Z,42.21
2018-09-26T16:58:24.602Z,42.28
2018-09-26T17:00:52.793Z,43.25
2018-09-26T17:03:21.103Z,44.31
2018-09-26T17:05:49.346Z,44.45
2018-09-26T17:08:17.575Z,45.21
2018-09-26T17:10:46.071Z,45.05
2018-09-26T17:13:14.306Z,45.87
2018-09-26T17:15:42.855Z,46.41
2018-09-26T17:18:11.130Z,46.38
2018-09-26T17:20:39.452Z,47.67
2018-09-26T17:23:07.753Z,49.46
2018-09-26T17:25:36.074Z,49.83
2018-09-26T17:28:04.357Z,49.41
2018-09-26T17:30:32.588Z,51.18
2018-09-26T17:33:00.818Z,50.77
2018-09-26T17:35:29.040Z,51.28
2018-09-26T17:37:57.299Z,51.27
2018-09-26T17:40:25.643Z,51.39
2018-09-26T17:42:53.823Z,52.33
2018-09-26T17:45:22.105Z,53.62
2018-09-26T17:47:50.345Z,53.20
2018-09-26T17:50:18.560Z,53.96
2018-09-26T17:52:46.791Z,54.79
2018-09-26T17:55:15.098Z,55.13
2018-09-26T17:57:43.365Z,56.28
2018-09-26T18:00:11.619Z,56.79
2018-09-26T18:02:39.836Z,56.84
2018-09-26T18:05:08.114Z,56.58
2018-09-26T18:07:36.488Z,55.64
2018-09-26T18:10:04.754Z,56.28
2018-09-26T18:12:33.072Z,56.41
2018-09-26T18:15:01.296Z,57.06
2018-09-26T18:17:29.543Z,58.69
2018-09-26T18:19:57.750Z,57.37
2018-09-26T18:22:25.980Z,57.97
2018-09-26T18:24:54.182Z,58.91
2018-09-26T18:27:22.436Z,59.00
2018-09-26T18:29:50.670Z,58.85
2018-09-26T18:32:18.938Z,59.99
2018-09-26T18:34:47.152Z,59.73
2018-09-26T18:37:15.435Z,60.90
2018-09-26T18:39:43.705Z,59.22
2018-09-26T18:42:11.921Z,60.29
2018-09-26T18:44:40.265Z,61.31
2018-09-26T18:47:08.552Z,61.38
2018-09-26T18:49:36.810Z,60.78
2018-09-26T18:52:05.061Z,59.78
2018-09-26T18:54:33.294Z,61.71
2018-09-26T18:57:01.519Z,61.92
2018-09-26T18:59:29.759Z,61.60
2018-09-26T19:01:58.019Z,61.74
2018-09-26T19:04:26.307Z,62.17
2018-09-26T19:06:54.502Z,63.64
2018-09-26T19:09:22.754Z,63.98
2018-09-26T19:11:50.981Z,63.86
2018-09-26T19:14:19.242Z,63.49
2018-09-26T19:16:47.458Z,62.57
2018-09-26T19:19:15.717Z,63.87
2018-09-26T19:21:44.002Z,64.98
2018-09-26T19:24:12.350Z,65.01
2018-09-26T19:26:40.646Z,64.37
2018-09-26T19:29:08.886Z,64.27
2018-09-26T19:31:38.335Z,65.54
2018-09-26T19:34:06.639Z,65.04
2018-09-26T19:36:34.998Z,64.71
2018-09-26T19:39:03.488Z,64.61
2018-09-26T19:41:31.718Z,65.03
2018-09-26T19:44:00.122Z,64.03
2018-09-26T19:46:28.283Z,66.31
2018-09-26T19:48:56.578Z,65.10
2018-09-26T19:51:24.826Z,65.95
2018-09-26T19:53:53.045Z,66.63
2018-09-26T19:56:21.415Z,66.63
2018-09-26T19:58:49.664Z,65.92
2018-09-26T20:01:17.945Z,66.19
2018-09-26T20:03:46.221Z,67.43
2018-09-26T20:06:14.538Z,67.07
2018-09-26T20:08:42.765Z,67.14
2018-09-26T20:11:11.063Z,67.38
2018-09-26T20:13:39.330Z,67.36
2018-09-26T20:16:07.711Z,66.77
2018-09-26T20:18:35.954Z,67.29
2018-09-26T20:21:04.249Z,67.85
2018-09-26T20:23:32.570Z,68.67
2018-09-26T20:26:00.731Z,68.10
2018-09-26T20:28:29.008Z,68.79
2018-09-26T20:30:57.286Z,69.03
2018-09-26T20:33:25.603Z,70.00
2018-09-26T20:35:54.657Z,69.93
2018-09-26T20:38:22.906Z,69.04
2018-09-26T20:40:51.129Z,69.68
2018-09-26T20:43:19.364Z,70.13
2018-09-26T20:45:47.623Z,71.34
2018-09-26T20:48:15.875Z,69.80
2018-09-26T20:50:44.096Z,70.22
2018-09-26T20:53:12.424Z,70.72
2018-09-26T20:55:40.640Z,70.69
2018-09-26T20:58:08.947Z,70.53
2018-09-26T21:00:37.299Z,70.95
2018-09-26T21:03:05.547Z,71.20
2018-09-26T21:05:33.790Z,72.70
2018-09-26T21:08:02.042Z,72.43
2018-09-26T21:10:30.280Z,72.52
2018-09-26T21:12:58.601Z,72.73
2018-09-26T21:15:27.334Z,72.04
2018-09-26T21:17:55.634Z,73.62
2018-09-26T21:20:23.918Z,73.00
2018-09-26T21:22:52.365Z,72.44
2018-09-26T21:25:20.959Z,73.35
2018-09-26T21:27:49.239Z,73.24
2018-09-26T21:30:17.461Z,74.32
2018-09-26T21:32:45.770Z,73.23
2018-09-26T21:35:14.170Z,73.35
2018-09-26T21:37:42.422Z,73.41
2018-09-26T21:40:11.456Z,73.27
2018-09-26T21:42:39.698Z,73.42
2018-09-26T21:45:08.102Z,73.52
2018-09-26T21:47:36.346Z,74.04
2018-09-26T21:50:04.690Z,73.34
2018-09-26T21:52:32.888Z,73.65
2018-09-26T21:55:01.254Z,73.93
2018-09-26T21:57:29.510Z,73.54
2018-09-26T21:59:57.973Z,75.49
2018-09-26T22:02:26.192Z,75.39
2018-09-26T22:04:54.439Z,75.26
2018-09-26T22:07:22.691Z,75.89
2018-09-26T22:09:51.039Z,74.69
2018-09-26T22:12:19.331Z,75.09
2018-09-26T22:14:48.650Z,75.61
2018-09-26T22:17:16.930Z,77.80
2018-09-26T22:19:45.203Z,75.69
2018-09-26T22:22:13.458Z,76.86
2018-09-26T22:24:41.673Z,77.68
2018-09-26T22:27:09.990Z,77.41
2018-09-26T22:29:38.193Z,77.21
2018-09-26T22:32:06.675Z,77.57
2018-09-26T22:34:34.918Z,77.14
2018-09-26T22:37:03.143Z,76.83
2018-09-26T22:39:31.378Z,76.68
2018-09-26T22:41:59.720Z,77.16
2018-09-26T22:44:27.950Z,77.29
2018-09-26T22:46:56.219Z,77.35
2018-09-26T22:49:24.450Z,77.16
2018-09-26T22:51:52.681Z,76.28
2018-09-26T22:54:20.934Z,78.82
2018-09-26T22:56:49.153Z,77.98
2018-09-26T22:59:17.376Z,78.23
2018-09-26T23:01:45.612Z,78.54
2018-09-26T23:04:13.862Z,78.69
2018-09-26T23:06:42.102Z,79.51
2018-09-26T23:09:11.688Z,79.33
2018-09-26T23:11:39.920Z,79.11
2018-09-26T23:14:08.110Z,79.68
2018-09-26T23:16:36.346Z,79.26
2018-09-26T23:19:04.806Z,79.47
2018-09-26T23:21:33.046Z,80.28
2018-09-26T23:24:01.310Z,79.71
2018-09-26T23:26:29.546Z,79.74
2018-09-26T23:28:57.805Z,79.25
2018-09-26T23:31:26.130Z,78.19
2018-09-26T23:33:54.382Z,78.67
2018-09-26T23:36:22.625Z,77.70
2018-09-26T23:38:50.918Z,79.16
2018-09-26T23:41:19.159Z,79.50
2018-09-26T23:43:47.410Z,80.08
2018-09-26T23:46:15.628Z,79.67
2018-09-26T23:48:43.854Z,80.62
2018-09-26T23:51:12.067Z,80.87
2018-09-26T23:53:40.350Z,78.90
2018-09-26T23:56:08.634Z,80.15
2018-09-26T23:58:36.883Z,80.35
